createdAt,value
2023-03-10T00:00:26.139Z,10.00
2023-03-10T00:03:14.934Z,9.60
2023-03-10T00:06:04.362Z,10.00
2023-03-10T00:08:52.189Z,9.70
2023-03-10T00:11:43.624Z,9.70
2023-03-10T00:14:32.408Z,9.70
2023-03-10T00:17:24.529Z,9.60
2023-03-10T00:20:14.541Z,9.70
2023-03-10T00:23:03.051Z,9.80
2023-03-10T00:25:55.253Z,9.70
2023-03-10T00:28:46.400Z,9.60
2023-03-10T00:31:34.971Z,9.70
2023-03-10T00:34:24.172Z,10.20
2023-03-10T00:37:16.037Z,9.70
2023-03-10T00:40:08.515Z,8.90
2023-03-10T00:42:56.720Z,11.00
2023-03-10T00:45:47.819Z,10.00
2023-03-10T00:48:35.212Z,10.30
2023-03-10T00:51:24.328Z,11.80
2023-03-10T00:54:12.010Z,9.80
2023-03-10T00:56:59.835Z,9.50
2023-03-10T00:59:50.620Z,9.80
2023-03-10T01:02:41.405Z,11.60
2023-03-10T01:05:30.041Z,9.60
2023-03-10T01:08:20.690Z,9.80
2023-03-10T01:11:10.056Z,9.10
2023-03-10T01:13:59.708Z,9.50
2023-03-10T01:16:47.389Z,10.00
2023-03-10T01:19:39.008Z,9.80
2023-03-10T01:22:26.751Z,10.60
2023-03-10T01:25:17.267Z,9.70
2023-03-10T01:28:05.160Z,9.30
2023-03-10T01:30:53.223Z,10.90
2023-03-10T01:33:44.317Z,9.70
2023-03-10T01:36:32.124Z,9.70
2023-03-10T01:39:20.199Z,12.40
2023-03-10T01:42:10.085Z,9.70
2023-03-10T01:45:05.451Z,9.60
2023-03-10T01:47:53.495Z,9.60
2023-03-10T01:50:46.499Z,9.50
2023-03-10T01:53:35.264Z,9.60
2023-03-10T01:56:23.084Z,9.50
2023-03-10T01:59:13.174Z,9.50
2023-03-10T02:02:01.823Z,9.50
2023-03-10T02:04:50.232Z,9.60
2023-03-10T02:07:45.694Z,9.50
2023-03-10T02:10:34.238Z,8.30
2023-03-10T02:13:22.007Z,9.50
2023-03-10T02:16:17.257Z,9.40
2023-03-10T02:19:10.471Z,9.50
2023-03-10T02:22:02.822Z,9.30
2023-03-10T02:24:55.258Z,11.00
2023-03-10T02:27:50.825Z,12.00
2023-03-10T02:30:39.148Z,9.60
2023-03-10T02:33:28.853Z,9.10
2023-03-10T02:36:18.838Z,9.20
2023-03-10T02:39:06.898Z,9.10
2023-03-10T02:41:57.176Z,9.10
2023-03-10T02:44:47.450Z,8.90
2023-03-10T02:47:34.909Z,8.70
2023-03-10T02:50:24.141Z,9.20
2023-03-10T02:53:16.919Z,8.70
2023-03-10T02:56:05.523Z,9.40
2023-03-10T02:58:58.316Z,8.80
2023-03-10T03:01:47.758Z,10.00
2023-03-10T03:04:37.686Z,9.00
2023-03-10T03:07:26.169Z,8.80
2023-03-10T03:10:15.645Z,8.80
2023-03-10T03:13:03.462Z,9.00
2023-03-10T03:15:51.878Z,9.70
2023-03-10T03:18:42.245Z,9.50
2023-03-10T03:21:34.312Z,8.80
2023-03-10T03:24:31.245Z,9.00
2023-03-10T03:27:19.276Z,9.00
2023-03-10T03:30:08.861Z,8.90
2023-03-10T03:32:57.093Z,8.90
2023-03-10T03:35:49.167Z,9.20
2023-03-10T03:38:39.290Z,9.00
2023-03-10T03:41:27.196Z,9.10
2023-03-10T03:44:15.304Z,8.80
2023-03-10T03:47:06.134Z,9.00
2023-03-10T03:49:54.869Z,7.70
2023-03-10T03:52:47.706Z,9.10
2023-03-10T03:55:42.821Z,9.40
2023-03-10T03:58:31.695Z,8.50
2023-03-10T04:01:20.556Z,9.20
2023-03-10T04:04:15.367Z,9.20
2023-03-10T04:07:11.315Z,9.30
2023-03-10T04:10:24.094Z,10.00
2023-03-10T04:13:12.444Z,10.20
2023-03-10T04:16:04.024Z,9.20
2023-03-10T04:18:58.493Z,9.60
2023-03-10T04:21:51.203Z,7.50
2023-03-10T04:24:39.953Z,9.00
2023-03-10T04:27:29.538Z,9.70
2023-03-10T04:30:17.714Z,8.20
2023-03-10T04:33:10.932Z,8.80
2023-03-10T04:36:05.275Z,9.00
2023-03-10T04:38:53.476Z,9.00
2023-03-10T04:41:46.940Z,10.90
2023-03-10T04:44:38.545Z,9.00
2023-03-10T04:47:31.605Z,8.80
2023-03-10T04:50:20.896Z,9.00
2023-03-10T04:53:12.885Z,8.90
2023-03-10T04:56:01.430Z,8.90
2023-03-10T04:58:52.058Z,8.80
2023-03-10T05:01:41.861Z,8.60
2023-03-10T05:04:34.725Z,8.70
2023-03-10T05:07:22.847Z,8.60
2023-03-10T05:10:23.848Z,8.40
2023-03-10T05:13:15.875Z,8.30
2023-03-10T05:16:05.173Z,7.30
2023-03-10T05:18:54.649Z,8.20
2023-03-10T05:21:47.361Z,8.10
2023-03-10T05:24:40.208Z,8.00
2023-03-10T05:27:27.977Z,7.90
2023-03-10T05:30:19.661Z,9.80
2023-03-10T05:33:10.904Z,8.10
2023-03-10T05:36:00.613Z,8.20
2023-03-10T05:38:51.614Z,8.30
2023-03-10T05:41:40.282Z,8.30
2023-03-10T05:44:28.098Z,8.10
2023-03-10T05:47:22.044Z,8.20
2023-03-10T05:50:18.859Z,9.20
2023-03-10T05:53:08.207Z,8.30
2023-03-10T05:56:03.925Z,8.20
2023-03-10T05:58:53.368Z,8.10
2023-03-10T06:01:48.162Z,7.90
2023-03-10T06:04:38.884Z,7.80
2023-03-10T06:07:30.413Z,8.10
2023-03-10T06:10:23.989Z,8.40
2023-03-10T06:13:11.936Z,9.40
2023-03-10T06:16:00.910Z,10.20
2023-03-10T06:18:49.720Z,8.10
2023-03-10T06:21:38.201Z,8.20
2023-03-10T06:24:30.683Z,8.10
2023-03-10T06:27:19.918Z,8.30
2023-03-10T06:30:08.427Z,8.50
2023-03-10T06:32:58.570Z,8.10
2023-03-10T06:35:46.998Z,8.90
2023-03-10T06:38:35.312Z,8.30
2023-03-10T06:41:23.988Z,8.20
2023-03-10T06:44:18.876Z,8.40
2023-03-10T06:47:07.294Z,10.30
2023-03-10T06:50:00.426Z,9.20
2023-03-10T06:52:48.586Z,11.00
2023-03-10T06:55:36.787Z,9.00
2023-03-10T06:58:26.989Z,10.70
2023-03-10T07:01:35.916Z,9.20
2023-03-10T07:04:28.718Z,8.90
2023-03-10T07:07:19.673Z,9.00
2023-03-10T07:10:11.806Z,9.10
2023-03-10T07:13:00.609Z,9.20
2023-03-10T07:15:53.720Z,9.40
2023-03-10T07:18:50.459Z,9.50
2023-03-10T07:21:42.039Z,10.90
2023-03-10T07:24:30.094Z,9.60
2023-03-10T07:27:18.007Z,9.80
2023-03-10T07:30:06.708Z,10.10
2023-03-10T07:32:58.274Z,10.20
2023-03-10T07:35:51.085Z,9.90
2023-03-10T07:38:39.263Z,11.00
2023-03-10T07:41:28.105Z,10.30
2023-03-10T07:44:21.764Z,9.80
2023-03-10T07:47:17.169Z,9.80
2023-03-10T07:50:04.847Z,10.40
2023-03-10T07:52:56.435Z,9.90
2023-03-10T07:55:48.111Z,9.80
2023-03-10T07:58:36.696Z,10.00
2023-03-10T08:01:26.664Z,9.70
2023-03-10T08:04:14.714Z,9.50
2023-03-10T08:07:05.834Z,9.60
2023-03-10T08:09:59.598Z,9.70
2023-03-10T08:12:47.456Z,9.40
2023-03-10T08:15:36.725Z,9.20
2023-03-10T08:18:26.592Z,9.60
2023-03-10T08:21:15.786Z,9.50
2023-03-10T08:24:08.756Z,9.20
2023-03-10T08:26:59.000Z,9.40
2023-03-10T08:29:49.532Z,9.40
2023-03-10T08:32:39.841Z,9.60
2023-03-10T08:35:30.594Z,9.80
2023-03-10T08:38:19.375Z,9.40
2023-03-10T08:41:12.234Z,11.20
2023-03-10T08:44:02.263Z,9.50
2023-03-10T08:46:52.095Z,11.80
2023-03-10T08:49:41.295Z,11.20
2023-03-10T08:52:31.769Z,9.40
2023-03-10T08:55:23.286Z,8.80
2023-03-10T08:58:14.177Z,9.30
2023-03-10T09:01:03.804Z,9.10
2023-03-10T09:03:54.313Z,9.00
2023-03-10T09:06:42.027Z,8.90
2023-03-10T09:09:29.548Z,8.90
2023-03-10T09:12:17.278Z,8.80
2023-03-10T09:15:05.248Z,8.90
2023-03-10T09:17:55.809Z,9.00
2023-03-10T09:20:46.322Z,9.10
2023-03-10T09:23:36.803Z,9.20
2023-03-10T09:26:25.571Z,9.20
2023-03-10T09:29:16.798Z,9.20
2023-03-10T09:32:06.559Z,9.10
2023-03-10T09:34:57.040Z,9.30
2023-03-10T09:37:48.684Z,11.80
2023-03-10T09:40:38.644Z,10.10
2023-03-10T09:43:27.347Z,9.80
2023-03-10T09:46:19.114Z,9.30
2023-03-10T09:49:10.768Z,9.80
2023-03-10T09:52:02.418Z,11.00
2023-03-10T09:54:58.405Z,9.50
2023-03-10T09:57:48.165Z,9.70
2023-03-10T10:00:40.233Z,10.10
2023-03-10T10:03:52.234Z,9.60
2023-03-10T10:06:47.632Z,9.80
2023-03-10T10:09:43.532Z,9.70
2023-03-10T10:12:31.391Z,9.30
2023-03-10T10:15:22.174Z,10.30
2023-03-10T10:18:19.594Z,9.40
2023-03-10T10:21:14.031Z,11.60
2023-03-10T10:24:02.846Z,9.40
2023-03-10T10:26:52.929Z,9.40
2023-03-10T10:29:42.589Z,9.60
2023-03-10T10:32:33.465Z,9.30
2023-03-10T10:35:28.039Z,9.60
2023-03-10T10:38:22.151Z,9.60
2023-03-10T10:41:18.015Z,9.60
2023-03-10T10:44:09.702Z,9.50
2023-03-10T10:46:58.456Z,9.60
2023-03-10T10:49:47.141Z,9.80
2023-03-10T10:52:41.092Z,10.10
2023-03-10T10:55:30.144Z,9.60
2023-03-10T10:58:29.947Z,10.00
2023-03-10T11:01:20.795Z,11.80
2023-03-10T11:04:09.504Z,10.30
2023-03-10T11:07:10.999Z,10.30
2023-03-10T11:10:00.806Z,10.30
2023-03-10T11:12:58.041Z,9.40
2023-03-10T11:15:55.598Z,10.70
2023-03-10T11:18:52.025Z,10.10
2023-03-10T11:21:43.876Z,10.40
2023-03-10T11:24:35.254Z,10.20
2023-03-10T11:27:28.107Z,10.40
2023-03-10T11:30:18.369Z,10.30
2023-03-10T11:33:09.624Z,11.30
2023-03-10T11:36:01.667Z,10.30
2023-03-10T11:38:51.409Z,10.30
2023-03-10T11:41:41.336Z,10.30
2023-03-10T11:44:30.571Z,10.90
2023-03-10T11:47:25.050Z,11.20
2023-03-10T11:50:23.092Z,10.60
2023-03-10T11:53:15.128Z,12.00
2023-03-10T11:56:03.601Z,10.10
2023-03-10T11:58:54.128Z,9.70
2023-03-10T12:01:45.318Z,9.40
2023-03-10T12:04:41.233Z,9.10
2023-03-10T12:07:31.228Z,9.00
2023-03-10T12:10:23.286Z,8.90
2023-03-10T12:13:22.947Z,7.70
2023-03-10T12:16:17.295Z,7.30
2023-03-10T12:19:05.977Z,8.30
2023-03-10T12:22:12.535Z,8.30
2023-03-10T12:25:00.351Z,8.30
2023-03-10T12:28:05.131Z,8.30
2023-03-10T12:30:56.668Z,8.20
2023-03-10T12:33:53.842Z,8.20
2023-03-10T12:36:48.736Z,8.40
2023-03-10T12:39:39.617Z,8.60
2023-03-10T12:42:37.077Z,8.20
2023-03-10T12:45:28.960Z,8.60
2023-03-10T12:48:20.168Z,8.70
2023-03-10T12:51:12.683Z,8.10
2023-03-10T12:54:03.920Z,8.00
2023-03-10T12:56:58.900Z,8.00
2023-03-10T12:59:56.293Z,8.00
2023-03-10T13:02:49.580Z,8.40
2023-03-10T13:05:40.365Z,7.70
2023-03-10T13:08:35.547Z,7.70
2023-03-10T13:11:26.139Z,8.20
2023-03-10T13:14:20.653Z,8.40
2023-03-10T13:17:09.888Z,7.70
2023-03-10T13:19:59.332Z,7.60
2023-03-10T13:23:00.398Z,7.60
2023-03-10T13:25:53.168Z,7.70
2023-03-10T13:28:56.991Z,7.50
2023-03-10T13:31:53.088Z,7.60
2023-03-10T13:34:41.165Z,7.60
2023-03-10T13:37:31.802Z,7.60
2023-03-10T13:40:23.203Z,7.50
2023-03-10T13:43:25.220Z,7.70
2023-03-10T13:46:17.131Z,9.20
2023-03-10T13:49:07.096Z,9.10
2023-03-10T13:51:55.264Z,7.10
2023-03-10T13:54:43.429Z,7.20
2023-03-10T13:57:34.923Z,7.10
2023-03-10T14:00:23.555Z,7.00
2023-03-10T14:03:11.108Z,6.90
2023-03-10T14:05:59.153Z,6.90
2023-03-10T14:08:46.580Z,6.60
2023-03-10T14:11:42.954Z,6.80
2023-03-10T14:14:33.895Z,6.80
2023-03-10T14:17:31.972Z,6.80
2023-03-10T14:20:27.004Z,5.50
2023-03-10T14:23:26.705Z,6.60
2023-03-10T14:26:17.799Z,5.80
2023-03-10T14:29:10.587Z,5.10
2023-03-10T14:31:59.197Z,4.90
2023-03-10T14:34:50.029Z,4.40
2023-03-10T14:37:37.687Z,4.10
2023-03-10T14:40:26.405Z,4.00
2023-03-10T14:43:15.891Z,3.80
2023-03-10T14:46:06.108Z,3.80
2023-03-10T14:48:55.252Z,3.70
2023-03-10T14:51:44.656Z,3.50
2023-03-10T14:54:31.823Z,3.40
2023-03-10T14:57:21.432Z,3.30
2023-03-10T15:00:12.688Z,3.10
2023-03-10T15:03:00.379Z,2.70
2023-03-10T15:05:49.662Z,2.50
2023-03-10T15:08:37.876Z,2.50
2023-03-10T15:11:36.405Z,2.50
2023-03-10T15:14:26.071Z,2.40
2023-03-10T15:17:14.262Z,2.40
2023-03-10T15:20:02.250Z,2.40
2023-03-10T15:22:52.071Z,2.40
2023-03-10T15:25:40.194Z,2.40
2023-03-10T15:28:27.481Z,2.20
2023-03-10T15:31:17.891Z,2.40
2023-03-10T15:34:07.324Z,2.40
2023-03-10T15:36:56.624Z,2.40
2023-03-10T15:39:48.952Z,2.40
2023-03-10T15:42:37.249Z,2.50
2023-03-10T15:45:25.410Z,2.50
2023-03-10T15:48:13.286Z,2.50
2023-03-10T15:51:00.917Z,2.50
2023-03-10T15:53:48.839Z,2.50
2023-03-10T15:56:37.616Z,2.50
2023-03-10T16:02:20.221Z,2.30
2023-03-10T16:05:23.438Z,2.10
2023-03-10T16:08:11.463Z,2.10
2023-03-10T16:10:59.946Z,2.30
2023-03-10T16:13:50.522Z,2.40
2023-03-10T16:16:38.306Z,2.40
2023-03-10T16:19:27.278Z,-1.00
2023-03-10T16:22:18.508Z,2.30
2023-03-10T16:25:09.088Z,2.30
2023-03-10T16:27:56.952Z,2.30
2023-03-10T16:30:53.221Z,2.10
2023-03-10T16:33:46.587Z,2.10
2023-03-10T16:36:36.621Z,2.10
2023-03-10T16:39:25.880Z,2.10
2023-03-10T16:42:14.245Z,2.10
2023-03-10T16:45:01.977Z,2.10
2023-03-10T16:47:50.807Z,2.10
2023-03-10T16:50:38.892Z,2.10
2023-03-10T16:53:27.426Z,2.20
2023-03-10T16:56:17.395Z,2.10
2023-03-10T16:59:06.865Z,2.10
2023-03-10T17:01:59.503Z,2.10
2023-03-10T17:04:48.604Z,2.40
2023-03-10T17:07:54.719Z,2.20
2023-03-10T17:10:44.315Z,2.30
2023-03-10T17:13:32.200Z,1.40
2023-03-10T17:16:20.469Z,2.60
2023-03-10T17:19:09.683Z,2.40
2023-03-10T17:22:07.061Z,2.50
2023-03-10T17:24:54.912Z,2.60
2023-03-10T17:27:43.708Z,2.60
2023-03-10T17:30:34.387Z,2.60
2023-03-10T17:33:24.899Z,2.60
2023-03-10T17:36:14.235Z,2.60
2023-03-10T17:39:04.909Z,1.30
2023-03-10T17:41:52.311Z,2.30
2023-03-10T17:44:40.281Z,1.20
2023-03-10T17:47:28.979Z,3.00
2023-03-10T17:50:17.112Z,2.00
2023-03-10T17:53:04.838Z,2.00
2023-03-10T17:55:55.019Z,1.70
2023-03-10T17:58:44.181Z,1.80
2023-03-10T18:01:33.951Z,1.90
2023-03-10T18:04:21.338Z,2.00
2023-03-10T18:07:11.576Z,5.40
2023-03-10T18:09:59.325Z,2.00
2023-03-10T18:12:51.014Z,3.80
2023-03-10T18:15:39.057Z,2.10
2023-03-10T18:18:29.455Z,1.80
2023-03-10T18:21:18.112Z,1.80
2023-03-10T18:24:06.702Z,1.80
2023-03-10T18:26:56.348Z,1.40
2023-03-10T18:29:48.605Z,1.80
2023-03-10T18:32:35.946Z,1.80
2023-03-10T18:35:23.849Z,1.90
2023-03-10T18:38:13.528Z,1.90
2023-03-10T18:41:02.662Z,1.80
2023-03-10T18:43:51.224Z,1.80
2023-03-10T18:46:44.245Z,1.40
2023-03-10T18:49:32.999Z,1.80
2023-03-10T18:52:21.236Z,1.90
2023-03-10T18:55:09.363Z,1.80
2023-03-10T18:57:57.005Z,1.70
2023-03-10T19:00:47.379Z,1.90
2023-03-10T19:03:39.729Z,1.50
2023-03-10T19:06:32.739Z,1.70
2023-03-10T19:09:21.912Z,1.80
2023-03-10T19:12:10.866Z,1.60
2023-03-10T19:15:09.237Z,1.60
2023-03-10T19:17:59.658Z,1.60
2023-03-10T19:20:51.111Z,1.70
2023-03-10T19:23:43.115Z,1.90
2023-03-10T19:26:35.349Z,2.00
2023-03-10T19:29:23.430Z,1.60
2023-03-10T19:32:14.626Z,1.70
2023-03-10T19:35:02.476Z,2.80
2023-03-10T19:37:54.272Z,3.80
2023-03-10T19:40:42.155Z,0.00
2023-03-10T19:43:29.612Z,1.40
2023-03-10T19:46:17.995Z,1.90
2023-03-10T19:49:06.977Z,2.00
2023-03-10T19:51:54.650Z,1.50
2023-03-10T19:54:46.728Z,1.70
2023-03-10T19:57:38.778Z,3.10
2023-03-10T20:00:31.442Z,1.70
2023-03-10T20:03:19.554Z,1.70
2023-03-10T20:06:09.300Z,1.70
2023-03-10T20:08:58.430Z,1.40
2023-03-10T20:11:48.343Z,1.60
2023-03-10T20:14:36.464Z,1.40
2023-03-10T20:17:24.397Z,0.30
2023-03-10T20:20:15.447Z,1.30
2023-03-10T20:23:04.015Z,1.30
2023-03-10T20:26:01.664Z,1.30
2023-03-10T20:28:57.723Z,1.50
2023-03-10T20:31:47.594Z,1.20
2023-03-10T20:34:35.300Z,1.60
2023-03-10T20:37:23.329Z,1.30
2023-03-10T20:40:15.279Z,1.30
2023-03-10T20:43:05.992Z,1.40
2023-03-10T20:45:56.033Z,1.40
2023-03-10T20:48:46.949Z,3.80
2023-03-10T20:51:34.808Z,1.50
2023-03-10T20:54:23.677Z,1.30
2023-03-10T20:57:11.315Z,1.20
2023-03-10T21:00:00.722Z,1.20
2023-03-10T21:02:52.227Z,1.10
2023-03-10T21:05:41.005Z,0.80
2023-03-10T21:08:29.805Z,0.90
2023-03-10T21:11:19.212Z,0.90
2023-03-10T21:14:07.388Z,1.10
2023-03-10T21:17:00.285Z,1.40
2023-03-10T21:19:50.455Z,1.40
2023-03-10T21:22:39.353Z,1.00
2023-03-10T21:25:31.040Z,1.00
2023-03-10T21:28:19.235Z,0.90
2023-03-10T21:31:07.044Z,1.00
2023-03-10T21:34:04.762Z,1.00
2023-03-10T21:36:56.572Z,1.10
2023-03-10T21:39:44.236Z,1.10
2023-03-10T21:42:31.886Z,2.40
2023-03-10T21:45:21.160Z,2.90
2023-03-10T21:48:09.467Z,1.30
2023-03-10T21:51:00.244Z,1.50
2023-03-10T21:53:50.548Z,2.90
2023-03-10T21:56:38.348Z,1.20
2023-03-10T21:59:26.905Z,1.40
2023-03-10T22:02:23.314Z,1.50
2023-03-10T22:05:13.748Z,1.10
2023-03-10T22:08:09.768Z,1.10
2023-03-10T22:10:59.270Z,1.00
2023-03-10T22:13:48.084Z,1.20
2023-03-10T22:16:36.699Z,0.80
2023-03-10T22:19:25.238Z,0.80
2023-03-10T22:22:13.411Z,1.00
2023-03-10T22:25:03.396Z,0.80
2023-03-10T22:27:55.417Z,1.10
2023-03-10T22:30:43.792Z,2.00
2023-03-10T22:33:32.297Z,0.90
2023-03-10T22:36:20.114Z,0.70
2023-03-10T22:39:08.892Z,0.60
2023-03-10T22:41:57.485Z,1.00
2023-03-10T22:44:47.060Z,0.70
2023-03-10T22:47:35.291Z,0.70
2023-03-10T22:50:24.987Z,0.70
2023-03-10T22:53:15.310Z,0.60
2023-03-10T22:56:03.945Z,0.80
2023-03-10T22:58:51.552Z,1.20
2023-03-10T23:01:41.917Z,0.80
2023-03-10T23:04:30.840Z,3.60
2023-03-10T23:07:18.558Z,-1.20
2023-03-10T23:10:07.806Z,0.80
2023-03-10T23:13:00.881Z,0.90
2023-03-10T23:15:49.382Z,1.00
2023-03-10T23:18:38.782Z,1.20
2023-03-10T23:21:27.708Z,3.80
2023-03-10T23:24:15.878Z,1.40
2023-03-10T23:27:03.618Z,1.50
2023-03-10T23:29:52.075Z,1.50
2023-03-10T23:32:41.414Z,1.90
2023-03-10T23:35:32.510Z,1.60
2023-03-10T23:38:21.409Z,1.50
2023-03-10T23:41:09.968Z,1.70
2023-03-10T23:44:00.101Z,1.70
2023-03-10T23:46:51.847Z,1.60
2023-03-10T23:49:40.017Z,2.10
2023-03-10T23:52:29.562Z,2.30
2023-03-10T23:55:19.342Z,1.50
2023-03-10T23:58:10.653Z,2.60
